Time;durP1;ratioP1;P1;durP2;ratioP2;P2;SDS_P1;SDS_P2;PMS_P1;PMS_P2;Temp;Humidity;BMP_temperature;BMP_pressure;BME280_temperature;BME280_humidity;BME280_pressure;Samples;Min_cycle;Max_cycle;Signal;HPM_P1;HPM_P2
2021/06/04 00:01:28;;;;;;;8.03;4.03;;;;;;;11.61;65.40;99220.25;125810;1102;22973;-77
2021/06/04 00:03:56;;;;;;;6.75;3.60;;;;;;;11.60;65.46;99230.34;125828;1102;22747;-77
2021/06/04 00:06:24;;;;;;;4.30;3.60;;;;;;;11.50;65.75;99230.07;125842;1101;22751;-77
2021/06/04 00:08:53;;;;;;;4.65;3.93;;;;;;;11.35;66.15;99225.88;125879;1102;22768;-77
2021/06/04 00:11:30;;;;;;;6.73;3.87;;;;;;;11.19;66.29;99221.03;126083;1101;22750;-77
2021/06/04 00:14:02;;;;;;;6.30;4.05;;;;;;;11.11;66.64;99221.38;126087;1096;22774;-77
2021/06/04 00:17:01;;;;;;;5.50;3.80;;;;;;;11.10;67.03;99227.88;125789;1097;26302;-77
2021/06/04 00:19:31;;;;;;;4.80;3.90;;;;;;;11.10;67.30;99209.65;126077;1101;22812;-77
2021/06/04 00:22:25;;;;;;;6.60;4.40;;;;;;;11.16;66.75;99219.62;125834;1104;22867;-77
2021/06/04 00:25:07;;;;;;;7.35;4.45;;;;;;;11.21;67.26;99214.31;126045;1101;22775;-77
2021/06/04 00:27:36;;;;;;;8.75;4.35;;;;;;;11.24;66.82;99209.45;125847;1096;22806;-77
2021/06/04 00:30:19;;;;;;;9.05;5.05;;;;;;;11.28;66.99;99213.38;125912;1096;25986;-77
2021/06/04 00:32:46;;;;;;;8.33;5.53;;;;;;;11.29;67.27;99207.69;126066;1096;27122;-77
2021/06/04 00:35:28;;;;;;;7.70;4.03;;;;;;;11.25;67.48;99206.50;126088;1101;24135;-77
2021/06/04 00:37:55;;;;;;;8.25;4.40;;;;;;;11.17;66.98;99213.11;125839;1102;22751;-77
2021/06/04 00:40:43;;;;;;;8.00;4.07;;;;;;;11.13;66.99;99214.62;125780;1096;26219;-77
2021/06/04 00:43:11;;;;;;;5.57;4.27;;;;;;;11.12;67.20;99212.97;125850;1096;25874;-77
2021/06/04 00:45:47;;;;;;;5.20;3.15;;;;;;;11.12;67.02;99207.52;126136;1101;24386;-77
2021/06/04 00:48:15;;;;;;;6.37;3.90;;;;;;;11.15;66.82;99212.48;126114;1096;25983;-77
2021/06/04 00:51:05;;;;;;;6.40;3.70;;;;;;;11.21;66.76;99213.48;125929;1101;22813;-77
2021/06/04 00:53:48;;;;;;;;;;;;;;;11.25;67.04;99217.41;126249;1101;22923;-77
2021/06/04 00:56:24;;;;;;;5.60;3.60;;;;;;;11.28;67.04;99218.83;125924;1101;21527;-77
2021/06/04 00:58:54;;;;;;;4.85;3.60;;;;;;;11.29;66.82;99212.32;126140;1101;22787;-77
2021/06/04 01:01:27;;;;;;;6.53;3.70;;;;;;;11.26;67.66;99212.78;125895;1102;22748;-77
2021/06/04 01:04:10;;;;;;;5.97;3.60;;;;;;;11.24;67.20;99212.18;125836;1102;22936;-77
2021/06/04 01:07:02;;;;;;;5.70;4.05;;;;;;;11.23;67.12;99211.36;125837;1096;27295;-77
2021/06/04 01:10:06;;;;;;;5.35;3.60;;;;;;;11.20;67.41;99209.91;126045;1101;22745;-76
2021/06/04 01:12:40;;;;;;;4.70;3.55;;;;;;;11.16;67.01;99202.44;125964;1101;22823;-77
2021/06/04 01:15:35;;;;;;;7.30;4.10;;;;;;;11.07;66.93;99209.28;126080;1096;27153;-77
2021/06/04 01:18:46;;;;;;;6.60;4.00;;;;;;;10.99;67.64;99213.13;126036;1101;22809;-76
2021/06/04 01:21:44;;;;;;;5.60;4.50;;;;;;;10.90;67.86;99207.16;125902;1096;22753;-76
2021/06/04 01:24:54;;;;;;;6.03;4.10;;;;;;;10.90;68.02;99211.78;126225;1096;27164;-76
2021/06/04 01:27:36;;;;;;;7.80;4.55;;;;;;;10.87;67.95;99204.05;126190;1101;24380;-76
2021/06/04 01:30:38;;;;;;;7.15;4.40;;;;;;;10.81;68.14;99208.53;125982;1101;22744;-76
2021/06/04 01:33:18;;;;;;;7.10;3.80;;;;;;;10.80;67.54;99213.16;125911;1103;22868;-78
2021/06/04 01:35:53;;;;;;;5.80;4.17;;;;;;;10.81;67.47;99213.98;126164;1096;27318;-78
2021/06/04 01:38:30;;;;;;;5.37;3.63;;;;;;;10.82;67.84;99213.76;126153;1101;22761;-78
2021/06/04 01:41:03;;;;;;;9.67;4.20;;;;;;;10.88;67.89;99208.45;125934;1101;23032;-78
2021/06/04 01:43:52;;;;;;;4.80;3.85;;;;;;;10.92;67.62;99209.66;125828;1101;22743;-76
2021/06/04 01:46:31;;;;;;;5.33;4.23;;;;;;;10.96;67.93;99205.41;125973;1101;22768;-78
2021/06/04 01:49:19;;;;;;;6.25;3.90;;;;;;;10.99;67.46;99207.67;125872;1096;26241;-76
2021/06/04 01:52:09;;;;;;;5.67;3.80;;;;;;;11.02;66.97;99205.33;125884;1102;22910;-76
2021/06/04 01:54:52;;;;;;;8.50;3.75;;;;;;;11.00;67.09;99198.45;126042;1101;22917;-78
2021/06/04 01:57:28;;;;;;;5.30;3.90;;;;;;;10.95;66.95;99207.30;126067;1101;22767;-76
2021/06/04 02:00:13;;;;;;;4.65;4.05;;;;;;;10.93;67.32;99203.98;125846;1101;22778;-76
2021/06/04 02:02:58;;;;;;;6.30;3.80;;;;;;;10.88;67.58;99213.91;126052;1101;22907;-76
2021/06/04 02:05:37;;;;;;;6.80;3.90;;;;;;;10.75;67.86;99215.73;125891;1101;22835;-76
2021/06/04 02:08:48;;;;;;;5.30;3.90;;;;;;;10.70;67.91;99212.85;126048;1101;22850;-76
2021/06/04 02:11:22;;;;;;;7.40;4.75;;;;;;;10.66;68.12;99211.66;126147;1101;22741;-76
2021/06/04 02:13:51;;;;;;;8.95;4.10;;;;;;;10.64;68.00;99213.74;125882;1101;24425;-76
2021/06/04 02:16:26;;;;;;;5.50;4.17;;;;;;;10.64;68.39;99211.02;125928;1102;22795;-78
2021/06/04 02:19:16;;;;;;;5.55;4.50;;;;;;;10.64;68.35;99216.47;125831;1101;22838;-78
2021/06/04 02:22:17;;;;;;;6.50;4.20;;;;;;;10.62;68.15;99214.00;126071;1101;22767;-76
2021/06/04 02:25:01;;;;;;;7.17;3.63;;;;;;;10.59;68.46;99219.89;126051;1101;22844;-76
2021/06/04 02:27:34;;;;;;;4.55;3.50;;;;;;;10.60;68.74;99217.98;125904;1101;22802;-78
2021/06/04 02:30:12;;;;;;;5.15;3.90;;;;;;;10.61;68.64;99216.95;126074;1101;24149;-78
2021/06/04 02:32:57;;;;;;;8.70;4.00;;;;;;;10.60;69.24;99210.64;126067;1101;24128;-76
2021/06/04 02:35:38;;;;;;;7.65;4.45;;;;;;;10.54;68.83;99217.01;125845;1101;24380;-78
2021/06/04 02:38:21;;;;;;;5.80;3.47;;;;;;;10.50;68.83;99214.95;125886;1096;25983;-76
2021/06/04 02:41:14;;;;;;;5.07;4.10;;;;;;;10.45;69.12;99216.47;125915;1096;26216;-76
2021/06/04 02:43:52;;;;;;;6.20;4.20;;;;;;;10.44;68.80;99219.41;126079;1096;26241;-78
2021/06/04 02:46:31;;;;;;;6.65;4.50;;;;;;;10.43;69.00;99215.87;126042;1101;22806;-78
2021/06/04 02:48:59;;;;;;;5.95;3.80;;;;;;;10.46;68.55;99217.30;125865;1102;22881;-78
2021/06/04 02:51:52;;;;;;;8.05;4.10;;;;;;;10.47;69.04;99226.31;126063;1101;22768;-78
2021/06/04 02:54:32;;;;;;;7.95;4.50;;;;;;;10.48;68.87;99223.34;126115;1101;22741;-78
2021/06/04 02:57:02;;;;;;;;;;;;;;;10.50;69.31;99223.98;126074;1101;22733;-76
2021/06/04 02:59:36;;;;;;;5.20;4.10;;;;;;;10.47;69.30;99218.97;126067;1101;24223;-76
2021/06/04 03:02:11;;;;;;;5.50;4.50;;;;;;;10.45;69.05;99229.27;125774;1102;22833;-76
2021/06/04 03:04:58;;;;;;;5.65;5.05;;;;;;;10.44;69.07;99231.13;125861;1096;27186;-76
2021/06/04 03:07:41;;;;;;;6.77;4.07;;;;;;;10.45;69.21;99223.81;125883;1096;27295;-76
2021/06/04 03:10:33;;;;;;;5.73;4.17;;;;;;;10.46;68.92;99233.63;126190;1101;23036;-76
2021/06/04 03:13:21;;;;;;;8.90;3.85;;;;;;;10.51;69.39;99222.08;125832;1102;22893;-76
2021/06/04 03:15:54;;;;;;;5.85;4.00;;;;;;;10.56;69.15;99220.34;126081;1101;22743;-76
2021/06/04 03:18:54;;;;;;;5.25;4.30;;;;;;;10.63;69.20;99228.44;125822;1101;22768;-78
2021/06/04 03:21:58;;;;;;;7.55;4.30;;;;;;;10.64;69.45;99221.91;125837;1096;22882;-76
2021/06/04 03:24:43;;;;;;;7.13;4.27;;;;;;;10.58;69.16;99225.56;125846;1101;22748;-76
2021/06/04 03:27:18;;;;;;;5.67;4.50;;;;;;;10.56;69.32;99231.23;125776;1096;22761;-78
2021/06/04 03:29:48;;;;;;;6.93;4.43;;;;;;;10.57;69.33;99234.78;126085;1101;22910;-78
2021/06/04 03:32:16;;;;;;;7.40;4.25;;;;;;;10.58;69.44;99233.73;126134;1101;22917;-77
2021/06/04 03:34:58;;;;;;;4.80;4.20;;;;;;;10.62;69.58;99235.79;126199;1096;27176;-77
2021/06/04 03:37:26;;;;;;;5.87;3.93;;;;;;;10.65;69.67;99237.21;126210;1101;24151;-77
2021/06/04 03:39:55;;;;;;;6.53;5.17;;;;;;;10.67;69.21;99226.09;125945;1101;22823;-77
2021/06/04 03:42:28;;;;;;;6.67;5.17;;;;;;;10.67;69.52;99226.92;126265;1101;22725;-77
2021/06/04 03:44:57;;;;;;;6.90;4.40;;;;;;;10.72;70.10;99226.25;126204;1096;22779;-77
2021/06/04 03:47:26;;;;;;;7.85;4.73;;;;;;;10.77;69.85;99229.95;126055;1103;22761;-77
2021/06/04 03:50:10;;;;;;;9.70;4.83;;;;;;;10.83;69.89;99233.66;126195;1096;26264;-77
2021/06/04 03:52:37;;;;;;;;;;;;;;;10.86;69.73;99235.11;126092;1103;24690;-77
2021/06/04 03:55:08;;;;;;;7.65;4.55;;;;;;;10.89;70.08;99227.31;125910;1101;21919;-77
2021/06/04 03:57:37;;;;;;;7.40;4.67;;;;;;;10.96;69.57;99236.23;126358;1096;26241;-77
2021/06/04 04:00:17;;;;;;;7.30;4.03;;;;;;;11.03;69.49;99241.61;126178;1101;22740;-77
2021/06/04 04:02:58;;;;;;;6.90;4.73;;;;;;;11.09;69.68;99231.68;125946;1096;27288;-77
2021/06/04 04:05:27;;;;;;;5.83;4.47;;;;;;;11.15;69.73;99230.75;126033;1096;26257;-77
2021/06/04 04:08:09;;;;;;;4.57;4.10;;;;;;;11.25;69.57;99238.39;125880;1096;22935;-77
2021/06/04 04:10:37;;;;;;;8.03;4.43;;;;;;;11.30;68.89;99235.81;126076;1096;26213;-77
2021/06/04 04:13:06;;;;;;;7.55;4.50;;;;;;;11.34;68.71;99240.55;125999;1102;22807;-77
2021/06/04 04:15:33;;;;;;;8.77;4.77;;;;;;;11.40;68.51;99231.47;125908;1101;22740;-77
2021/06/04 04:18:15;;;;;;;7.70;5.60;;;;;;;11.44;68.89;99234.56;125934;1101;23273;-77
2021/06/04 04:20:50;;;;;;;10.50;5.55;;;;;;;11.48;69.40;99229.47;125974;1101;22757;-77
2021/06/04 04:23:24;;;;;;;8.90;5.25;;;;;;;11.51;69.19;99223.53;126118;1102;22832;-77
2021/06/04 04:25:52;;;;;;;6.35;4.15;;;;;;;11.56;68.80;99223.67;126079;1096;27185;-77
2021/06/04 04:28:27;;;;;;;10.25;5.35;;;;;;;11.63;69.89;99231.77;126074;1101;22769;-77
2021/06/04 04:30:55;;;;;;;10.60;6.00;;;;;;;11.67;70.24;99232.95;125991;1101;22743;-77
2021/06/04 04:33:23;;;;;;;7.13;5.77;;;;;;;11.71;70.53;99232.27;126155;1096;25868;-77
2021/06/04 04:35:51;;;;;;;6.20;5.33;;;;;;;11.78;70.65;99232.17;125956;1102;22768;-77
2021/06/04 04:38:21;;;;;;;9.10;5.60;;;;;;;11.84;71.00;99230.39;125979;1102;22833;-77
2021/06/04 04:41:02;;;;;;;7.80;5.45;;;;;;;11.87;70.84;99230.76;125927;1101;22740;-77
2021/06/04 04:43:35;;;;;;;6.10;5.10;;;;;;;11.94;72.02;99236.15;126165;1101;22744;-77
2021/06/04 04:46:05;;;;;;;7.50;5.10;;;;;;;11.94;72.53;99242.43;126309;1101;22762;-77
2021/06/04 04:48:33;;;;;;;6.27;5.60;;;;;;;11.97;73.45;99241.14;126012;1102;22748;-77
2021/06/04 04:51:17;;;;;;;10.05;5.20;;;;;;;11.98;73.32;99240.06;126160;1101;22743;-77
2021/06/04 04:53:59;;;;;;;9.15;4.80;;;;;;;12.02;73.71;99238.52;125937;1096;26356;-77
2021/06/04 04:56:27;;;;;;;11.53;5.63;;;;;;;12.08;73.99;99242.23;126010;1101;22896;-77
2021/06/04 04:58:55;;;;;;;8.93;5.73;;;;;;;12.16;75.05;99239.13;126013;1102;24129;-77
2021/06/04 05:01:38;;;;;;;9.33;4.80;;;;;;;12.27;75.30;99234.73;126207;1101;23693;-77
2021/06/04 05:04:05;;;;;;;;;;;;;;;12.35;75.03;99237.95;126162;1096;25868;-77
2021/06/04 05:06:46;;;;;;;8.40;5.50;;;;;;;12.46;75.11;99239.02;125940;1102;23108;-77
2021/06/04 05:09:28;;;;;;;7.13;5.53;;;;;;;12.59;74.54;99243.42;126160;1096;22783;-77
2021/06/04 05:12:11;;;;;;;7.85;6.10;;;;;;;12.73;74.86;99242.10;126276;1096;22869;-77
2021/06/04 05:14:39;;;;;;;10.03;4.80;;;;;;;12.86;74.09;99243.73;126108;1103;22768;-77
2021/06/04 05:17:07;;;;;;;4.87;4.30;;;;;;;13.02;73.61;99249.54;126295;1101;22884;-77
2021/06/04 05:19:37;;;;;;;8.70;4.50;;;;;;;13.18;72.44;99253.42;126231;1101;22748;-77
2021/06/04 05:22:06;;;;;;;9.40;5.20;;;;;;;13.32;70.75;99246.63;126330;1096;26436;-77
2021/06/04 05:24:33;;;;;;;8.55;4.65;;;;;;;13.47;69.21;99246.92;125998;1096;27148;-77
2021/06/04 05:27:01;;;;;;;10.67;4.60;;;;;;;13.58;68.52;99250.69;126285;1101;22747;-77
2021/06/04 05:29:28;;;;;;;8.10;4.85;;;;;;;13.69;67.55;99248.96;126001;1096;26095;-77
2021/06/04 05:31:56;;;;;;;7.55;4.95;;;;;;;13.80;67.54;99241.76;125962;1101;22747;-77
2021/06/04 05:34:24;;;;;;;6.15;4.60;;;;;;;13.92;66.38;99245.26;125925;1096;22743;-77
2021/06/04 05:36:52;;;;;;;7.95;5.15;;;;;;;14.01;65.97;99249.24;126311;1101;22747;-77
2021/06/04 05:39:34;;;;;;;8.65;4.75;;;;;;;14.12;65.31;99252.16;126043;1101;22864;-77
2021/06/04 05:42:15;;;;;;;5.80;4.30;;;;;;;14.21;65.17;99248.74;126219;1101;22822;-77
2021/06/04 05:44:46;;;;;;;6.50;5.20;;;;;;;14.32;64.25;99254.39;125933;1101;22762;-77
2021/06/04 05:47:28;;;;;;;6.85;4.20;;;;;;;14.42;64.13;99249.89;126127;1096;22761;-77
2021/06/04 05:49:56;;;;;;;5.40;4.40;;;;;;;14.52;63.59;99242.90;126139;1101;22744;-77
2021/06/04 05:52:24;;;;;;;9.85;4.80;;;;;;;14.62;65.24;99245.83;126294;1101;22743;-77
2021/06/04 05:55:06;;;;;;;8.03;4.87;;;;;;;14.70;65.43;99250.06;126006;1101;24523;-77
2021/06/04 05:57:34;;;;;;;8.70;5.18;;;;;;;14.79;65.28;99251.28;126246;1101;22910;-77
2021/06/04 06:00:03;;;;;;;9.45;5.15;;;;;;;14.88;65.18;99252.50;125963;1096;27303;-77
2021/06/04 06:02:55;;;;;;;9.87;5.10;;;;;;;14.98;65.15;99260.88;126239;1101;22835;-77
2021/06/04 06:05:22;;;;;;;;;;;;;;;15.08;64.44;99254.67;126381;1101;22747;-77
2021/06/04 06:08:05;;;;;;;11.05;4.90;;;;;;;15.16;64.12;99254.23;125968;1101;24339;-77
2021/06/04 06:10:32;;;;;;;7.70;5.53;;;;;;;15.27;64.09;99259.85;126214;1101;22786;-77
2021/06/04 06:13:14;;;;;;;9.75;5.20;;;;;;;15.35;63.48;99257.48;125940;1102;22802;-77
2021/06/04 06:15:43;;;;;;;13.37;5.23;;;;;;;15.43;63.19;99256.19;126257;1101;22743;-77
2021/06/04 06:18:11;;;;;;;8.83;5.57;;;;;;;15.52;63.18;99251.08;126066;1096;27352;-77
2021/06/04 06:20:43;;;;;;;6.50;5.30;;;;;;;15.63;62.98;99255.58;126304;1102;22741;-77
2021/06/04 06:23:28;;;;;;;11.05;5.55;;;;;;;15.73;62.18;99249.38;126161;1096;27259;-77
2021/06/04 06:26:02;;;;;;;6.70;6.00;;;;;;;15.83;61.81;99248.66;126309;1101;24438;-77
2021/06/04 06:28:33;;;;;;;8.10;6.10;;;;;;;15.93;61.01;99255.08;126161;1101;22815;-77
2021/06/04 06:31:20;;;;;;;7.75;5.85;;;;;;;16.04;60.24;99247.78;126261;1101;22911;-77
2021/06/04 06:34:04;;;;;;;6.80;5.75;;;;;;;16.18;60.23;99255.58;126211;1101;22764;-77
2021/06/04 06:36:46;;;;;;;7.33;5.20;;;;;;;16.28;59.91;99250.98;125956;1101;22761;-77
2021/06/04 06:39:24;;;;;;;6.43;5.33;;;;;;;16.40;59.80;99245.31;126092;1101;22876;-77
2021/06/04 06:41:54;;;;;;;8.47;6.03;;;;;;;16.53;59.11;99244.02;126216;1101;22747;-77
2021/06/04 06:44:22;;;;;;;7.93;5.03;;;;;;;16.65;59.06;99246.58;126021;1101;22831;-77
2021/06/04 06:46:51;;;;;;;7.98;4.93;;;;;;;16.76;58.62;99242.78;125867;1096;22961;-77
2021/06/04 06:49:24;;;;;;;7.30;5.50;;;;;;;16.89;57.10;99244.25;125817;1101;22717;-77
2021/06/04 06:51:53;;;;;;;7.63;5.50;;;;;;;17.00;57.41;99239.66;126076;1101;22809;-77
2021/06/04 06:54:25;;;;;;;6.77;5.97;;;;;;;17.12;57.69;99245.73;126158;1096;27150;-77
2021/06/04 06:56:55;;;;;;;7.87;5.33;;;;;;;17.25;57.61;99242.50;126112;1101;22741;-77
2021/06/04 06:59:26;;;;;;;8.73;4.93;;;;;;;17.39;56.89;99244.76;126170;1096;22748;-77
2021/06/04 07:01:53;;;;;;;7.78;5.30;;;;;;;17.54;57.29;99253.05;126176;1101;22747;-77
2021/06/04 07:04:21;;;;;;;8.70;4.80;;;;;;;17.68;56.63;99247.03;126194;1102;24556;-77
2021/06/04 07:06:49;;;;;;;6.55;4.68;;;;;;;17.79;54.81;99246.75;125915;1104;22802;-78
2021/06/04 07:09:17;;;;;;;8.18;5.20;;;;;;;17.92;54.49;99247.35;125980;1101;22758;-78
2021/06/04 07:11:50;;;;;;;6.43;4.53;;;;;;;18.02;53.94;99252.88;125945;1104;22735;-78
2021/06/04 07:14:33;;;;;;;7.20;4.93;;;;;;;18.11;54.35;99256.73;126227;1101;22745;-78
2021/06/04 07:17:03;;;;;;;8.55;4.93;;;;;;;18.26;54.51;99255.11;126083;1101;22740;-78
2021/06/04 07:19:33;;;;;;;7.30;4.70;;;;;;;18.41;54.56;99252.33;126131;1096;22799;-78
2021/06/04 07:22:03;;;;;;;5.70;4.48;;;;;;;18.55;53.11;99258.92;126099;1101;22744;-78
2021/06/04 07:24:32;;;;;;;5.75;4.40;;;;;;;18.69;52.94;99261.13;125837;1096;27147;-78
2021/06/04 07:27:01;;;;;;;6.58;4.20;;;;;;;18.84;53.20;99265.80;125870;1096;26264;-78
2021/06/04 07:29:30;;;;;;;8.00;4.17;;;;;;;18.97;52.16;99267.98;125804;1096;22875;-78
2021/06/04 07:31:58;;;;;;;8.95;5.40;;;;;;;19.10;52.04;99264.62;126066;1096;25976;-78
2021/06/04 07:34:28;;;;;;;7.90;4.70;;;;;;;19.22;51.90;99261.55;125927;1104;22758;-78
2021/06/04 07:36:59;;;;;;;6.00;3.80;;;;;;;19.35;50.17;99263.71;126128;1101;24405;-78
2021/06/04 07:39:41;;;;;;;6.93;3.83;;;;;;;19.50;49.63;99260.03;126053;1101;23190;-78
2021/06/04 07:42:22;;;;;;;6.18;4.30;;;;;;;19.67;49.52;99256.06;125757;1096;22762;-78
2021/06/04 07:44:50;;;;;;;6.23;3.80;;;;;;;19.79;48.91;99264.87;126105;1101;22734;-78
2021/06/04 07:47:17;;;;;;;7.35;3.85;;;;;;;19.94;48.14;99260.34;125842;1096;24622;-77
2021/06/04 07:49:46;;;;;;;4.60;3.60;;;;;;;20.10;47.63;99256.38;125877;1102;23215;-77
2021/06/04 07:52:27;;;;;;;6.23;4.10;;;;;;;20.25;47.26;99252.66;126085;1101;22761;-78
2021/06/04 07:54:58;;;;;;;4.78;2.98;;;;;;;20.39;44.81;99253.63;126088;1101;22741;-78
2021/06/04 07:57:27;;;;;;;9.40;3.10;;;;;;;20.54;44.62;99241.61;125828;1096;27148;-78
2021/06/04 07:59:54;;;;;;;8.97;3.50;;;;;;;20.67;44.02;99253.96;125797;1102;22823;-78
2021/06/04 08:02:22;;;;;;;4.33;3.08;;;;;;;20.80;43.74;99250.48;126026;1101;22734;-78
2021/06/04 08:05:05;;;;;;;7.05;3.65;;;;;;;20.97;44.35;99250.03;125802;1101;22743;-78
2021/06/04 08:07:32;;;;;;;7.65;2.98;;;;;;;21.12;43.28;99245.43;125835;1096;25813;-78
2021/06/04 08:10:00;;;;;;;7.30;3.80;;;;;;;21.24;42.49;99246.66;125889;1104;22747;-78
2021/06/04 08:12:31;;;;;;;8.68;2.88;;;;;;;21.35;40.51;99238.22;126084;1101;24428;-78
2021/06/04 08:15:24;;;;;;;5.27;2.80;;;;;;;21.48;40.05;99242.23;125887;1104;22748;-78
2021/06/04 08:17:51;;;;;;;5.13;2.65;;;;;;;21.58;39.67;99247.63;125811;1096;22737;-78
2021/06/04 08:20:23;;;;;;;8.08;3.10;;;;;;;21.68;39.40;99241.14;125856;1096;26091;-78
2021/06/04 08:22:54;;;;;;;2.95;2.68;;;;;;;21.83;39.69;99242.84;125808;1101;22743;-78
2021/06/04 08:25:49;;;;;;;6.03;3.03;;;;;;;21.98;38.78;99240.66;126034;1096;27154;-78
2021/06/04 08:28:19;;;;;;;6.28;2.70;;;;;;;22.12;38.96;99235.17;126148;1096;27151;-78
2021/06/04 08:31:01;;;;;;;6.35;2.78;;;;;;;22.27;38.52;99236.08;125834;1101;22939;-78
2021/06/04 08:33:32;;;;;;;5.40;2.80;;;;;;;22.37;38.34;99228.39;126041;1101;22834;-78
2021/06/04 08:36:00;;;;;;;7.98;3.00;;;;;;;22.51;38.30;99230.39;126149;1096;22767;-78
2021/06/04 08:38:42;;;;;;;5.48;3.33;;;;;;;22.64;37.08;99221.25;126014;1096;27514;-78
2021/06/04 08:41:35;;;;;;;4.80;2.90;;;;;;;22.78;38.14;99232.38;125843;1102;22747;-78
2021/06/04 08:44:41;;;;;;;6.60;2.98;;;;;;;22.91;37.75;99231.58;125837;1102;22829;-78
2021/06/04 08:47:14;;;;;;;3.63;2.93;;;;;;;23.06;36.32;99236.02;125881;1101;22777;-78
2021/06/04 08:50:00;;;;;;;5.45;2.95;;;;;;;23.15;35.57;99227.79;125828;1104;22784;-78
2021/06/04 08:52:49;;;;;;;4.43;3.00;;;;;;;23.26;36.56;99231.98;125787;1096;25849;-78
2021/06/04 08:55:40;;;;;;;4.08;3.20;;;;;;;23.43;35.82;99225.80;125892;1102;22767;-78
2021/06/04 08:58:26;;;;;;;3.55;2.93;;;;;;;23.57;35.00;99225.78;126030;1101;22812;-78
2021/06/04 09:01:00;;;;;;;4.48;2.90;;;;;;;23.70;33.95;99226.88;125893;1096;26241;-78
2021/06/04 09:03:37;;;;;;;3.13;2.80;;;;;;;23.76;32.55;99225.63;125895;1101;22910;-79
2021/06/04 09:06:19;;;;;;;4.58;2.60;;;;;;;23.88;32.97;99222.30;125856;1101;22768;-79
2021/06/04 09:08:49;;;;;;;4.27;2.37;;;;;;;23.93;31.12;99218.59;126053;1101;22765;-78
2021/06/04 09:11:37;;;;;;;4.35;2.85;;;;;;;23.93;32.44;99219.41;126065;1096;22767;-78
2021/06/04 09:14:14;;;;;;;4.00;2.63;;;;;;;24.09;32.55;99225.42;126112;1101;22754;-78
2021/06/04 09:17:06;;;;;;;4.27;2.63;;;;;;;24.19;32.10;99216.01;125799;1101;22753;-78
2021/06/04 09:19:55;;;;;;;5.63;2.77;;;;;;;24.35;31.90;99213.66;126089;1096;25868;-78
2021/06/04 09:22:26;;;;;;;3.33;3.00;;;;;;;24.47;31.77;99205.54;125875;1101;22749;-78
2021/06/04 09:24:54;;;;;;;6.78;3.10;;;;;;;24.62;32.15;99216.27;126139;1096;27397;-78
2021/06/04 09:27:28;;;;;;;3.08;2.83;;;;;;;24.77;31.98;99212.27;126234;1101;24128;-78
2021/06/04 09:30:43;;;;;;;7.98;4.08;;;;;;;24.87;31.56;99205.57;125977;1096;22780;-78
2021/06/04 09:33:20;;;;;;;5.80;3.13;;;;;;;24.89;30.22;99205.25;126092;1101;22894;-79
2021/06/04 09:36:11;;;;;;;5.65;3.00;;;;;;;24.91;30.51;99209.34;126262;1096;27150;-78
2021/06/04 09:38:47;;;;;;;6.13;3.08;;;;;;;24.96;30.48;99206.42;126074;1101;22838;-78
2021/06/04 09:41:27;;;;;;;4.80;3.13;;;;;;;25.10;30.36;99205.49;126442;1101;22819;-79
2021/06/04 09:44:25;;;;;;;5.08;2.98;;;;;;;25.22;29.98;99197.33;126267;1104;22835;-79
2021/06/04 09:47:01;;;;;;;7.80;3.20;;;;;;;25.36;29.75;99203.62;126306;1102;24380;-79
2021/06/04 09:49:34;;;;;;;7.53;2.90;;;;;;;25.44;30.15;99204.77;126258;1101;22790;-79
2021/06/04 09:52:23;;;;;;;5.00;2.58;;;;;;;25.26;28.88;99203.11;125950;1102;22852;-79
2021/06/04 09:55:14;;;;;;;4.53;3.18;;;;;;;25.28;29.87;99200.81;126067;1101;22737;-79
2021/06/04 09:58:01;;;;;;;5.60;2.78;;;;;;;25.34;30.29;99197.55;126020;1101;22809;-79
2021/06/04 10:00:54;;;;;;;3.80;2.65;;;;;;;25.46;29.85;99194.13;125986;1101;22913;-79
2021/06/04 10:03:29;;;;;;;5.40;2.95;;;;;;;25.56;29.44;99188.21;126234;1101;24308;-79
2021/06/04 10:06:21;;;;;;;2.80;2.50;;;;;;;25.67;28.72;99188.70;126016;1102;22815;-79
2021/06/04 10:09:13;;;;;;;3.60;2.45;;;;;;;25.76;30.01;99186.77;126287;1101;22894;-79
2021/06/04 10:11:51;;;;;;;5.18;2.50;;;;;;;25.91;28.57;99181.83;126145;1096;27228;-79
2021/06/04 10:20:08;;;;;;;5.98;2.65;;;;;;;26.04;27.48;99166.08;125883;1101;22737;-79
2021/06/04 10:22:40;;;;;;;3.33;2.47;;;;;;;26.14;28.24;99177.71;125912;1102;22803;-79
2021/06/04 10:25:10;;;;;;;6.40;2.60;;;;;;;26.30;28.51;99177.20;126594;1101;22848;-79
2021/06/04 10:27:54;;;;;;;5.17;2.60;;;;;;;26.39;27.39;99177.98;126479;1101;22781;-79
2021/06/04 10:30:30;;;;;;;4.93;2.80;;;;;;;26.36;27.48;99164.68;125873;1101;22822;-79
2021/06/04 10:33:32;;;;;;;6.75;2.63;;;;;;;26.44;27.35;99166.64;125890;1096;25478;-79
2021/06/04 10:36:05;;;;;;;4.93;2.90;;;;;;;26.57;28.22;99166.76;126091;1096;22762;-79
2021/06/04 10:38:40;;;;;;;5.10;2.85;;;;;;;26.66;27.44;99157.20;126093;1101;22737;-79
2021/06/04 10:41:13;;;;;;;5.68;2.80;;;;;;;26.81;27.82;99155.84;125893;1101;24419;-79
2021/06/04 10:44:06;;;;;;;4.38;2.70;;;;;;;27.02;27.79;99160.64;125980;1096;24594;-79
2021/06/04 10:46:40;;;;;;;4.97;2.53;;;;;;;27.18;26.32;99158.92;126043;1101;22750;-79
2021/06/04 10:49:36;;;;;;;4.78;2.68;;;;;;;27.33;25.81;99154.73;126764;1096;23647;-79
2021/06/04 10:52:23;;;;;;;4.08;2.63;;;;;;;27.43;24.95;99164.71;126550;1101;22744;-79
2021/06/04 10:55:42;;;;;;;5.18;2.40;;;;;;;27.43;25.47;99156.31;126302;1096;22738;-79
2021/06/04 10:58:26;;;;;;;7.15;2.58;;;;;;;27.26;24.00;99154.42;126482;1101;22843;-79
2021/06/04 11:01:01;;;;;;;7.28;3.30;;;;;;;27.20;27.24;99151.01;126405;1101;22725;-79
2021/06/04 11:03:52;;;;;;;5.35;2.68;;;;;;;26.98;24.05;99152.12;126710;1101;24380;-79
2021/06/04 11:06:26;;;;;;;5.05;2.53;;;;;;;26.64;24.98;99144.73;126276;1104;22767;-79
2021/06/04 11:09:17;;;;;;;6.20;2.63;;;;;;;26.74;25.73;99151.91;126396;1104;22784;-79
2021/06/04 11:11:57;;;;;;;5.83;2.43;;;;;;;26.98;27.22;99152.12;126352;1096;26245;-79
2021/06/04 11:14:51;;;;;;;7.25;2.50;;;;;;;27.18;26.17;99144.10;125878;1096;22747;-79
2021/06/04 11:17:47;;;;;;;6.00;3.03;;;;;;;27.30;26.30;99149.00;125779;1104;22765;-79
2021/06/04 11:20:27;;;;;;;4.13;2.78;;;;;;;27.45;25.79;99140.81;125832;1096;25902;-79
2021/06/04 11:23:00;;;;;;;6.13;2.58;;;;;;;27.55;25.60;99135.96;126451;1097;26244;-79
2021/06/04 11:25:30;;;;;;;4.60;2.30;;;;;;;27.54;24.08;99134.34;126515;1104;22741;-79
2021/06/04 11:28:09;;;;;;;6.80;2.50;;;;;;;27.42;24.20;99135.90;126256;1104;22746;-79
2021/06/04 11:30:38;;;;;;;7.00;2.95;;;;;;;27.22;24.45;99128.30;126331;1096;25982;-79
2021/06/04 11:33:19;;;;;;;3.23;2.60;;;;;;;27.34;24.80;99130.37;126054;1104;22836;-79
2021/06/04 11:36:11;;;;;;;5.33;2.68;;;;;;;27.48;26.36;99130.91;125916;1104;22757;-79
2021/06/04 11:38:45;;;;;;;3.98;2.55;;;;;;;27.75;26.50;99134.33;126138;1097;27304;-79
2021/06/04 11:41:48;;;;;;;3.73;2.30;;;;;;;27.97;24.96;99130.34;125959;1094;26980;-79
2021/06/04 11:44:25;;;;;;;2.55;2.20;;;;;;;28.17;25.85;99125.84;125928;1097;28575;-79
2021/06/04 11:47:11;;;;;;;5.23;2.43;;;;;;;28.27;24.49;99128.20;125885;1104;22778;-79
2021/06/04 11:49:53;;;;;;;4.20;2.80;;;;;;;28.07;25.08;99117.91;125867;1104;22771;-79
2021/06/04 11:52:40;;;;;;;5.00;2.40;;;;;;;27.72;24.04;99127.42;125994;1104;22779;-79
2021/06/04 11:55:23;;;;;;;6.18;2.70;;;;;;;27.23;25.11;99116.78;125866;1097;26336;-79
2021/06/04 11:57:58;;;;;;;3.65;2.20;;;;;;;27.03;26.94;99123.16;125923;1104;22757;-79
2021/06/04 12:00:26;;;;;;;5.43;2.33;;;;;;;27.09;25.72;99121.78;125939;1104;22822;-79
2021/06/04 12:02:55;;;;;;;4.07;2.50;;;;;;;27.27;26.23;99106.57;126033;1105;22774;-79
2021/06/04 12:05:51;;;;;;;4.55;2.60;;;;;;;27.51;25.96;99115.44;125903;1096;25992;-79
2021/06/04 12:08:23;;;;;;;4.85;3.03;;;;;;;27.71;24.74;99109.02;125909;1104;22903;-79
2021/06/04 12:10:53;;;;;;;3.80;2.70;;;;;;;27.98;24.97;99099.20;125901;1097;26332;-79
2021/06/04 12:13:48;;;;;;;3.53;2.43;;;;;;;28.05;23.81;99097.81;125909;1104;22760;-79
2021/06/04 12:16:31;;;;;;;3.25;2.15;;;;;;;28.13;23.95;99094.91;125959;1104;22826;-79
2021/06/04 12:19:14;;;;;;;3.43;2.45;;;;;;;28.27;24.17;99093.78;125961;1104;22774;-79
2021/06/04 12:21:45;;;;;;;4.75;2.30;;;;;;;28.46;24.24;99090.43;125999;1104;22826;-79
2021/06/04 12:24:28;;;;;;;4.60;2.33;;;;;;;28.56;23.77;99090.81;125921;1104;22819;-79